Time;durP1;ratioP1;P1;durP2;ratioP2;P2;SDS_P1;SDS_P2;PMS_P1;PMS_P2;Temp;Humidity;BMP_temperature;BMP_pressure;BME280_temperature;BME280_humidity;BME280_pressure;Samples;Min_cycle;Max_cycle;Signal;HPM_P1;HPM_P2
2023/01/24 00:01:59;;;;;;;30.07;26.80;;;3.90;99.90;;;;;;6121984;23;20893;-73
2023/01/24 00:04:28;;;;;;;29.00;26.10;;;3.90;99.90;;;;;;6132903;23;20406;-72
2023/01/24 00:06:57;;;;;;;30.33;27.03;;;3.90;99.90;;;;;;6121630;23;20974;-73
2023/01/24 00:09:25;;;;;;;28.93;25.60;;;3.90;99.90;;;;;;6121757;23;20897;-72
2023/01/24 00:11:53;;;;;;;29.10;26.07;;;3.90;99.90;;;;;;6133304;23;20401;-73
2023/01/24 00:14:21;;;;;;;27.17;24.20;;;3.90;99.90;;;;;;6121773;23;20880;-73
2023/01/24 00:16:50;;;;;;;29.03;25.93;;;3.90;99.90;;;;;;6132836;23;20520;-73
2023/01/24 00:19:18;;;;;;;28.23;25.30;;;3.90;99.90;;;;;;6132788;23;20437;-73
2023/01/24 00:21:47;;;;;;;29.60;25.73;;;3.90;99.90;;;;;;6121500;23;20409;-73
2023/01/24 00:24:15;;;;;;;30.70;26.80;;;3.90;99.90;;;;;;6133029;23;20495;-73
2023/01/24 00:26:43;;;;;;;29.03;25.97;;;3.90;99.90;;;;;;6132971;23;20492;-72
2023/01/24 00:29:12;;;;;;;28.13;25.23;;;3.90;99.90;;;;;;6121422;23;20418;-72
2023/01/24 00:31:40;;;;;;;29.80;26.67;;;3.90;99.90;;;;;;6121594;23;20914;-73
2023/01/24 00:34:08;;;;;;;31.37;26.80;;;3.90;99.90;;;;;;6130551;23;20401;-72
2023/01/24 00:36:38;;;;;;;30.87;25.63;;;3.90;99.90;;;;;;6121434;23;20465;-72
2023/01/24 00:39:07;;;;;;;27.50;24.73;;;3.90;99.90;;;;;;6132907;23;20526;-73
2023/01/24 00:41:35;;;;;;;28.07;25.03;;;3.90;99.90;;;;;;6121374;23;20428;-73
2023/01/24 00:44:04;;;;;;;27.87;24.90;;;3.90;99.90;;;;;;6132878;23;20417;-73
2023/01/24 00:46:32;;;;;;;27.60;24.70;;;3.90;99.90;;;;;;6121161;23;20477;-73
2023/01/24 00:49:00;;;;;;;25.53;22.93;;;3.90;99.90;;;;;;6121317;23;20417;-73
2023/01/24 00:51:28;;;;;;;26.47;23.67;;;3.90;99.90;;;;;;6134714;23;20406;-73
2023/01/24 00:53:57;;;;;;;29.70;25.50;;;3.90;99.90;;;;;;6124469;23;20427;-73
2023/01/24 00:56:27;;;;;;;28.43;24.23;;;3.90;99.90;;;;;;6125637;23;20487;-73
2023/01/24 00:58:56;;;;;;;24.97;22.50;;;3.90;99.90;;;;;;6137671;23;20432;-73
2023/01/24 01:01:24;;;;;;;25.10;22.60;;;3.90;99.90;;;;;;6126369;23;20413;-73
2023/01/24 01:03:56;;;;;;;24.87;22.37;;;3.90;99.90;;;;;;6126445;23;20428;-73
2023/01/24 01:06:25;;;;;;;19.80;17.80;;;3.90;99.90;;;;;;6126301;23;20531;-73
2023/01/24 01:08:53;;;;;;;20.47;18.43;;;3.90;99.90;;;;;;6137731;23;20408;-73
2023/01/24 01:11:22;;;;;;;22.70;20.40;;;3.90;99.90;;;;;;6137667;23;20432;-73
2023/01/24 01:13:55;;;;;;;24.33;21.83;;;3.90;99.90;;;;;;6126560;23;20425;-73
2023/01/24 01:16:24;;;;;;;22.40;20.30;;;3.90;99.90;;;;;;6137865;23;20901;-73
2023/01/24 01:18:55;;;;;;;21.53;19.33;;;3.90;99.90;;;;;;6137400;23;20475;-73
2023/01/24 01:21:23;;;;;;;19.13;17.20;;;3.90;99.90;;;;;;6138210;23;20390;-73
2023/01/24 01:23:52;;;;;;;20.40;18.37;;;3.90;99.90;;;;;;6126227;23;20431;-73
2023/01/24 01:26:21;;;;;;;22.83;19.13;;;3.90;99.90;;;;;;6126028;23;20423;-73
2023/01/24 01:28:51;;;;;;;21.93;19.63;;;3.90;99.90;;;;;;6126212;23;20417;-73
2023/01/24 01:31:22;;;;;;;20.30;18.30;;;3.90;99.90;;;;;;6126123;23;20480;-73
2023/01/24 01:33:50;;;;;;;21.80;19.60;;;3.90;99.90;;;;;;6126174;23;20424;-73
2023/01/24 01:36:20;;;;;;;21.50;19.43;;;3.90;99.90;;;;;;6126309;23;20420;-73
2023/01/24 01:38:48;;;;;;;19.87;17.97;;;3.90;99.90;;;;;;6126148;23;20483;-73
2023/01/24 01:41:17;;;;;;;20.30;18.20;;;3.90;99.90;;;;;;6125970;23;20448;-73
2023/01/24 01:46:31;;;;;;;16.60;15.00;;;3.90;99.90;;;;;;6137092;23;20492;-73
2023/01/24 01:49:03;;;;;;;17.67;15.97;;;3.90;99.90;;;;;;6126115;23;20417;-73
2023/01/24 01:51:37;;;;;;;17.07;15.00;;;3.90;99.90;;;;;;6137722;23;20378;-72
2023/01/24 01:54:10;;;;;;;16.27;14.77;;;3.90;99.90;;;;;;6126020;23;20428;-73
2023/01/24 01:56:41;;;;;;;18.40;16.60;;;3.90;99.90;;;;;;6125889;23;20440;-73
2023/01/24 01:59:14;;;;;;;17.23;15.53;;;3.90;99.90;;;;;;6125948;23;20923;-73
2023/01/24 02:01:46;;;;;;;17.13;15.50;;;3.90;99.90;;;;;;6126032;23;20413;-73
2023/01/24 02:04:20;;;;;;;21.43;17.47;;;3.90;99.90;;;;;;6125951;23;20445;-73
2023/01/24 02:06:53;;;;;;;17.13;15.43;;;3.90;99.90;;;;;;6125531;23;20854;-73
2023/01/24 02:09:27;;;;;;;18.43;16.63;;;3.90;99.90;;;;;;6125968;23;20421;-73
2023/01/24 02:12:00;;;;;;;16.33;14.60;;;3.90;99.90;;;;;;6125880;23;20477;-73
2023/01/24 02:17:19;;;;;;;15.90;14.30;;;3.90;99.90;;;;;;6125742;23;20433;-73
2023/01/24 02:20:07;;;;;;;15.50;13.90;;;3.90;99.90;;;;;;6125747;23;20449;-73
2023/01/24 02:22:43;;;;;;;14.93;13.43;;;3.90;99.90;;;;;;6125990;23;20410;-73
2023/01/24 02:25:20;;;;;;;15.03;13.53;;;3.90;99.90;;;;;;6125686;23;20835;-73
2023/01/24 02:27:50;;;;;;;14.03;12.67;;;3.80;99.90;;;;;;6137170;23;20417;-73
2023/01/24 02:30:18;;;;;;;15.03;13.53;;;3.90;99.90;;;;;;6137362;23;20398;-73
2023/01/24 02:32:47;;;;;;;14.73;13.23;;;3.90;99.90;;;;;;6125693;23;20419;-73
2023/01/24 02:35:27;;;;;;;14.13;12.80;;;3.90;99.90;;;;;;6125654;23;20893;-73
2023/01/24 02:37:58;;;;;;;12.23;11.03;;;3.90;99.90;;;;;;6125580;23;20771;-73
2023/01/24 02:40:28;;;;;;;12.53;11.23;;;3.90;99.90;;;;;;6125595;23;20444;-73
2023/01/24 02:43:02;;;;;;;14.03;12.63;;;3.90;99.90;;;;;;6125617;23;20503;-73
2023/01/24 02:45:34;;;;;;;13.30;12.00;;;3.90;99.90;;;;;;6125450;23;20440;-73
2023/01/24 02:48:02;;;;;;;12.33;11.10;;;3.80;99.90;;;;;;6125531;23;20464;-73
2023/01/24 02:53:28;;;;;;;14.07;12.70;;;3.80;99.90;;;;;;6137239;23;20407;-72
2023/01/24 02:53:30;;;;;;;12.53;11.23;;;3.80;99.90;;;;;;6125992;23;20913;-72
2023/01/24 02:58:48;;;;;;;13.50;12.10;;;3.80;99.90;;;;;;6125903;23;20960;-72
2023/01/24 03:01:17;;;;;;;13.37;12.03;;;3.80;99.90;;;;;;6125426;23;20451;-73
2023/01/24 03:03:51;;;;;;;12.60;11.00;;;3.80;99.90;;;;;;6125794;23;20416;-72
2023/01/24 03:06:20;;;;;;;9.90;9.00;;;3.80;99.90;;;;;;6125329;23;20418;-73
2023/01/24 03:08:49;;;;;;;10.30;9.23;;;3.80;99.90;;;;;;6125511;23;20761;-72
2023/01/24 03:11:26;;;;;;;9.77;8.77;;;3.80;99.90;;;;;;6125756;23;20472;-72
2023/01/24 03:36:13;;;;;;;11.73;10.53;;;3.80;99.90;;;;;;6125793;23;20413;-73
2023/01/24 03:41:30;;;;;;;13.80;12.40;;;3.80;99.90;;;;;;6125618;23;20466;-73
2023/01/24 03:43:58;;;;;;;14.33;12.93;;;3.80;99.90;;;;;;6125447;23;20421;-73
2023/01/24 03:46:27;;;;;;;12.27;11.17;;;3.80;99.90;;;;;;6125102;23;20452;-73
2023/01/24 03:48:56;;;;;;;12.53;11.23;;;3.80;99.90;;;;;;6125182;23;20424;-73
2023/01/24 03:54:17;;;;;;;14.30;13.00;;;3.80;99.90;;;;;;6137151;23;20389;-73
2023/01/24 03:56:57;;;;;;;14.30;12.80;;;3.80;99.90;;;;;;6125699;23;20479;-72
2023/01/24 03:59:26;;;;;;;13.93;12.60;;;3.80;99.90;;;;;;6125648;23;20421;-73
2023/01/24 04:01:55;;;;;;;14.97;13.43;;;3.80;99.90;;;;;;6124959;23;20441;-73
2023/01/24 04:05:12;;;;;;;14.60;13.30;;;3.80;99.90;;;;;;6125019;23;20418;-73
2023/01/24 04:07:17;;;;;;;15.90;14.20;;;3.80;99.90;;;;;;6125348;23;20496;-73
2023/01/24 04:09:58;;;;;;;16.50;14.90;;;3.70;99.90;;;;;;6125158;23;20417;-73
2023/01/24 04:12:27;;;;;;;14.63;13.13;;;3.80;99.90;;;;;;6136399;23;20401;-72
2023/01/24 04:14:55;;;;;;;13.80;12.50;;;3.80;99.90;;;;;;6124911;23;20422;-72
2023/01/24 04:17:25;;;;;;;14.97;13.53;;;3.80;99.90;;;;;;6124751;23;20441;-73
2023/01/24 04:19:54;;;;;;;14.80;13.40;;;3.80;99.90;;;;;;6124998;23;20796;-73
2023/01/24 04:22:23;;;;;;;15.00;13.40;;;3.80;99.90;;;;;;6124706;23;20517;-73
2023/01/24 04:24:53;;;;;;;15.10;13.70;;;3.80;99.90;;;;;;6125886;23;20394;-73
2023/01/24 04:27:24;;;;;;;14.20;12.80;;;3.80;99.90;;;;;;6125088;23;20451;-73
2023/01/24 04:30:01;;;;;;;17.47;15.73;;;3.70;99.90;;;;;;6124905;23;20421;-73
2023/01/24 04:32:34;;;;;;;15.77;14.37;;;3.70;99.90;;;;;;6126962;23;20413;-73
2023/01/24 04:35:16;;;;;;;14.37;12.97;;;3.70;99.90;;;;;;6127618;23;20786;-72
2023/01/24 04:37:51;;;;;;;14.70;13.20;;;3.80;99.90;;;;;;6126736;23;20836;-73
2023/01/24 04:40:34;;;;;;;14.13;12.70;;;3.70;99.90;;;;;;6129228;23;20410;-73
2023/01/24 04:43:02;;;;;;;13.23;12.00;;;3.70;99.90;;;;;;6128624;23;20507;-73
2023/01/24 04:45:31;;;;;;;15.03;13.43;;;3.70;99.90;;;;;;6128676;23;20488;-73
2023/01/24 04:48:02;;;;;;;14.70;13.27;;;3.70;99.90;;;;;;6127744;23;20523;-73
2023/01/24 04:50:30;;;;;;;15.27;13.87;;;3.70;99.90;;;;;;6126659;23;20431;-73
2023/01/24 04:52:58;;;;;;;15.57;14.10;;;3.70;99.90;;;;;;6127205;23;20416;-72
2023/01/24 04:55:26;;;;;;;16.20;14.60;;;3.70;99.90;;;;;;6126702;23;20417;-73
2023/01/24 04:57:54;;;;;;;15.47;13.87;;;3.70;99.90;;;;;;6126439;23;20528;-72
2023/01/24 05:00:23;;;;;;;16.27;14.63;;;3.70;99.90;;;;;;6126587;23;20975;-72
2023/01/24 05:02:51;;;;;;;16.23;14.63;;;3.70;99.90;;;;;;6138433;23;20926;-73
2023/01/24 05:05:23;;;;;;;16.73;15.13;;;3.70;99.90;;;;;;6126725;23;20408;-72
2023/01/24 05:07:51;;;;;;;15.87;14.37;;;3.70;99.90;;;;;;6126430;23;20496;-73
2023/01/24 05:10:23;;;;;;;16.60;14.93;;;3.70;99.90;;;;;;6126467;23;20417;-73
2023/01/24 05:12:52;;;;;;;15.97;14.47;;;3.70;99.90;;;;;;6126825;23;20409;-73
2023/01/24 05:15:23;;;;;;;16.60;15.10;;;3.70;99.90;;;;;;6126449;23;20402;-73
2023/01/24 05:17:52;;;;;;;17.63;15.93;;;3.70;99.90;;;;;;6126353;23;20444;-73
2023/01/24 05:20:25;;;;;;;18.37;16.57;;;3.70;99.90;;;;;;6126914;23;20421;-73
2023/01/24 05:22:56;;;;;;;19.00;17.00;;;3.70;99.90;;;;;;6126626;23;20433;-73
2023/01/24 05:25:26;;;;;;;18.97;17.10;;;3.70;99.90;;;;;;6128053;23;20428;-73
2023/01/24 05:27:55;;;;;;;17.53;15.83;;;3.70;99.90;;;;;;6126207;23;20447;-73
2023/01/24 05:30:24;;;;;;;18.77;16.87;;;3.70;99.90;;;;;;6126329;23;20468;-73
2023/01/24 05:32:56;;;;;;;17.30;15.57;;;3.70;99.90;;;;;;6126263;23;20409;-73
2023/01/24 05:35:26;;;;;;;17.57;15.83;;;3.70;99.90;;;;;;6126241;23;20941;-73
2023/01/24 05:37:56;;;;;;;16.00;14.50;;;3.70;99.90;;;;;;6126848;23;20445;-73
2023/01/24 05:40:25;;;;;;;17.07;15.27;;;3.70;99.90;;;;;;6126511;23;20421;-72
2023/01/24 05:42:53;;;;;;;18.33;16.53;;;3.70;99.90;;;;;;6126088;23;20445;-73
2023/01/24 05:45:21;;;;;;;19.40;17.50;;;3.70;99.90;;;;;;6126035;23;20444;-73
2023/01/24 05:47:50;;;;;;;18.87;16.97;;;3.70;99.90;;;;;;6126834;23;20770;-73
2023/01/24 05:50:19;;;;;;;18.67;16.73;;;3.70;99.90;;;;;;6137740;23;20397;-73
2023/01/24 05:53:09;;;;;;;16.53;15.00;;;3.70;99.90;;;;;;6127475;23;20460;-72
2023/01/24 05:55:37;;;;;;;15.20;13.73;;;3.70;99.90;;;;;;6126046;23;20424;-72
2023/01/24 05:58:05;;;;;;;17.50;15.77;;;3.70;99.90;;;;;;6137482;23;20428;-73
2023/01/24 06:00:53;;;;;;;17.90;16.23;;;3.70;99.90;;;;;;6127808;23;20967;-73
2023/01/24 06:03:49;;;;;;;19.77;17.77;;;3.60;99.90;;;;;;6123457;23;20410;-73
2023/01/24 06:06:22;;;;;;;17.37;15.67;;;3.60;99.90;;;;;;6125972;23;20413;-73
2023/01/24 06:08:51;;;;;;;19.10;17.30;;;3.60;99.90;;;;;;6126237;23;20459;-72
2023/01/24 06:11:23;;;;;;;17.40;15.70;;;3.60;99.90;;;;;;6126274;23;20425;-72
2023/01/24 06:14:01;;;;;;;17.37;15.67;;;3.60;99.90;;;;;;6126231;23;20501;-73
2023/01/24 06:16:31;;;;;;;19.27;17.47;;;3.60;99.90;;;;;;6125660;23;20437;-72
2023/01/24 06:18:59;;;;;;;19.00;17.03;;;3.60;99.90;;;;;;6125819;23;20989;-74
2023/01/24 06:21:41;;;;;;;17.80;16.07;;;3.60;99.90;;;;;;6126010;23;20420;-73
2023/01/24 06:24:18;;;;;;;18.30;16.57;;;3.60;99.90;;;;;;6126111;23;20424;-73
2023/01/24 06:26:57;;;;;;;18.20;16.40;;;3.60;99.90;;;;;;6126502;23;20448;-73
2023/01/24 06:29:25;;;;;;;21.67;19.10;;;3.60;99.90;;;;;;6137922;23;20457;-73
2023/01/24 06:32:03;;;;;;;19.83;17.83;;;3.60;99.90;;;;;;6137340;23;20721;-73
2023/01/24 06:34:47;;;;;;;18.53;16.63;;;3.60;99.90;;;;;;6137376;23;20382;-73
2023/01/24 06:37:20;;;;;;;20.47;16.53;;;3.60;99.90;;;;;;6137196;23;20422;-72
2023/01/24 06:39:52;;;;;;;20.07;18.07;;;3.60;99.90;;;;;;6125872;23;20425;-72
2023/01/24 06:42:22;;;;;;;19.80;17.80;;;3.60;99.90;;;;;;6137612;23;20425;-72
2023/01/24 06:44:56;;;;;;;19.47;17.40;;;3.60;99.90;;;;;;6136867;23;20374;-73
2023/01/24 06:47:27;;;;;;;19.93;17.80;;;3.60;99.90;;;;;;6125474;23;20445;-72
2023/01/24 06:49:56;;;;;;;18.23;16.53;;;3.60;99.90;;;;;;6136831;23;20402;-73
2023/01/24 06:52:24;;;;;;;18.70;16.90;;;3.50;99.90;;;;;;6137217;23;20405;-72
2023/01/24 06:54:53;;;;;;;18.93;15.70;;;3.50;99.90;;;;;;6137813;23;20420;-73
2023/01/24 06:57:21;;;;;;;18.97;17.07;;;3.50;99.90;;;;;;6138072;23;20436;-72
2023/01/24 06:59:49;;;;;;;19.27;17.40;;;3.50;99.90;;;;;;6128016;23;20439;-72
2023/01/24 07:02:17;;;;;;;18.33;16.53;;;3.50;99.90;;;;;;6138159;23;20428;-72
2023/01/24 07:04:46;;;;;;;19.33;17.43;;;3.50;99.90;;;;;;6137612;23;20410;-71
2023/01/24 07:07:14;;;;;;;20.73;18.83;;;3.50;99.90;;;;;;6137379;23;20429;-72
2023/01/24 07:09:42;;;;;;;23.17;19.23;;;3.50;99.90;;;;;;6125588;23;20418;-71
2023/01/24 07:12:11;;;;;;;21.60;19.60;;;3.50;99.90;;;;;;6137003;23;20405;-71
2023/01/24 07:14:39;;;;;;;21.97;19.73;;;3.50;99.90;;;;;;6137060;23;20421;-71
2023/01/24 07:17:08;;;;;;;23.50;20.90;;;3.50;99.90;;;;;;6127361;23;20503;-71
2023/01/24 07:19:37;;;;;;;20.73;18.73;;;3.50;99.90;;;;;;6125421;23;20500;-71
2023/01/24 07:22:05;;;;;;;19.53;17.63;;;3.50;99.90;;;;;;6127037;23;20437;-71
2023/01/24 07:24:34;;;;;;;20.80;18.60;;;3.50;99.90;;;;;;6136714;23;20405;-72
2023/01/24 07:27:02;;;;;;;19.60;17.60;;;3.40;99.90;;;;;;6136554;23;20421;-73
2023/01/24 07:29:32;;;;;;;21.03;19.03;;;3.50;99.90;;;;;;6125200;23;20417;-73
2023/01/24 07:32:00;;;;;;;19.20;17.20;;;3.50;99.90;;;;;;6126991;23;20413;-73
2023/01/24 07:34:28;;;;;;;19.50;17.60;;;3.50;99.90;;;;;;6125459;23;20416;-72
2023/01/24 07:36:56;;;;;;;20.47;18.47;;;3.50;99.90;;;;;;6136344;23;20959;-73
2023/01/24 07:39:24;;;;;;;18.40;16.60;;;3.50;99.90;;;;;;6125536;23;20417;-72
2023/01/24 07:41:52;;;;;;;20.77;18.77;;;3.50;99.90;;;;;;6127575;23;20905;-72
2023/01/24 07:44:21;;;;;;;21.33;19.33;;;3.40;99.90;;;;;;6137149;23;20404;-73
2023/01/24 07:46:50;;;;;;;21.23;19.23;;;3.40;99.90;;;;;;6125115;23;20445;-73
2023/01/24 07:49:18;;;;;;;20.73;18.53;;;3.40;99.90;;;;;;6137269;23;20492;-72
2023/01/24 07:51:48;;;;;;;22.93;20.50;;;3.40;99.90;;;;;;6125065;23;20417;-73
2023/01/24 07:54:18;;;;;;;22.33;20.13;;;3.40;99.90;;;;;;6125014;23;20901;-73
2023/01/24 07:56:46;;;;;;;22.27;20.10;;;3.40;99.90;;;;;;6136973;23;20806;-73
2023/01/24 07:59:14;;;;;;;22.80;20.40;;;3.40;99.90;;;;;;6124901;23;20419;-73
2023/01/24 08:01:42;;;;;;;21.67;19.67;;;3.40;99.90;;;;;;6125070;23;20722;-73
2023/01/24 08:04:12;;;;;;;20.80;18.80;;;3.40;99.90;;;;;;6136208;23;20485;-73
2023/01/24 08:07:16;;;;;;;21.73;19.53;;;3.40;99.90;;;;;;6135857;23;20486;-72
2023/01/24 08:09:29;;;;;;;21.87;19.67;;;3.40;99.90;;;;;;6136688;23;20427;-73
2023/01/24 08:11:57;;;;;;;22.23;20.03;;;3.40;99.90;;;;;;6124843;23;20456;-72
2023/01/24 08:14:25;;;;;;;21.87;19.57;;;3.40;99.90;;;;;;6136142;23;20398;-73
2023/01/24 08:16:53;;;;;;;22.57;20.37;;;3.50;99.90;;;;;;6136059;23;20423;-72
2023/01/24 08:19:23;;;;;;;22.50;20.10;;;3.50;99.90;;;;;;6136201;23;20958;-73
2023/01/24 08:22:11;;;;;;;22.67;20.27;;;3.40;99.90;;;;;;6136519;23;20389;-73
2023/01/24 08:24:39;;;;;;;20.00;17.90;;;3.50;99.90;;;;;;6125167;23;20496;-72
2023/01/24 08:27:07;;;;;;;21.17;19.07;;;3.40;99.90;;;;;;6135969;23;20758;-72
2023/01/24 08:29:35;;;;;;;21.47;19.50;;;3.50;99.90;;;;;;6124778;23;20421;-73
2023/01/24 08:32:03;;;;;;;21.70;19.60;;;3.40;99.90;;;;;;6136439;23;20400;-73
2023/01/24 08:34:32;;;;;;;20.87;18.87;;;3.40;99.90;;;;;;6136759;23;20401;-73
2023/01/24 08:37:01;;;;;;;20.40;18.50;;;3.40;99.90;;;;;;6136047;23;20776;-73
2023/01/24 08:39:29;;;;;;;21.40;19.30;;;3.40;99.90;;;;;;6124800;23;20413;-73
2023/01/24 08:41:57;;;;;;;19.83;18.00;;;3.40;99.90;;;;;;6136702;23;20448;-73
2023/01/24 08:44:25;;;;;;;20.10;18.20;;;3.40;99.90;;;;;;6134779;23;20433;-73
2023/01/24 08:46:53;;;;;;;21.33;19.23;;;3.40;99.90;;;;;;6135867;23;20429;-73
2023/01/24 08:49:21;;;;;;;20.63;18.67;;;3.40;99.90;;;;;;6136475;23;20437;-72
2023/01/24 08:51:58;;;;;;;20.77;18.70;;;3.40;99.90;;;;;;6136371;23;20780;-73
2023/01/24 08:54:26;;;;;;;21.80;19.70;;;3.40;99.90;;;;;;6125002;23;20412;-73
2023/01/24 08:56:55;;;;;;;21.47;19.33;;;3.40;99.90;;;;;;6136242;23;20421;-72
2023/01/24 08:59:23;;;;;;;22.57;20.47;;;3.40;99.90;;;;;;6124939;23;20508;-72
2023/01/24 09:01:51;;;;;;;21.30;19.30;;;3.40;99.90;;;;;;6135950;23;20401;-72
2023/01/24 09:04:20;;;;;;;24.97;22.47;;;3.40;99.90;;;;;;6125964;23;20437;-72
2023/01/24 09:06:51;;;;;;;20.40;18.40;;;3.40;99.90;;;;;;6136288;23;20421;-72
2023/01/24 09:09:20;;;;;;;22.40;20.30;;;3.40;99.90;;;;;;6136704;23;20413;-71
2023/01/24 09:11:48;;;;;;;22.23;20.23;;;3.40;99.90;;;;;;6136002;23;20403;-72
2023/01/24 09:14:16;;;;;;;21.07;19.07;;;3.40;99.90;;;;;;6124586;23;20417;-72
2023/01/24 09:16:44;;;;;;;21.00;18.90;;;3.50;99.90;;;;;;6136390;23;20986;-71
2023/01/24 09:19:12;;;;;;;20.10;18.20;;;3.50;99.90;;;;;;6128602;23;20409;-72
2023/01/24 09:21:40;;;;;;;21.17;19.07;;;3.50;99.90;;;;;;6138443;23;20432;-72
2023/01/24 09:24:10;;;;;;;21.07;19.17;;;3.50;99.90;;;;;;6138019;23;20516;-71
2023/01/24 09:26:39;;;;;;;20.77;18.77;;;3.50;99.90;;;;;;6137862;23;20513;-72
2023/01/24 09:29:07;;;;;;;20.53;18.60;;;3.50;99.90;;;;;;6126498;23;20486;-72
2023/01/24 09:31:37;;;;;;;19.70;17.90;;;3.50;99.90;;;;;;6137881;23;20429;-72
2023/01/24 09:34:05;;;;;;;20.90;18.90;;;3.50;99.90;;;;;;6126219;23;20417;-72
2023/01/24 09:36:33;;;;;;;23.43;21.07;;;3.50;99.90;;;;;;6137458;23;20422;-72
2023/01/24 09:39:01;;;;;;;21.27;19.07;;;3.50;99.90;;;;;;6137427;23;20448;-72
2023/01/24 09:41:49;;;;;;;19.77;17.90;;;3.50;99.90;;;;;;6137959;23;20386;-72
2023/01/24 09:44:43;;;;;;;20.20;18.20;;;3.50;99.90;;;;;;6137381;23;20911;-72
2023/01/24 09:47:19;;;;;;;20.40;18.50;;;3.50;99.90;;;;;;6137346;23;20463;-73
2023/01/24 09:49:53;;;;;;;20.43;18.50;;;3.50;99.90;;;;;;6137783;23;20377;-73
2023/01/24 09:52:28;;;;;;;19.13;17.23;;;3.50;99.90;;;;;;6137543;23;20499;-73
2023/01/24 09:55:03;;;;;;;19.33;17.27;;;3.50;99.90;;;;;;6126095;23;20935;-73
2023/01/24 09:57:41;;;;;;;21.53;19.53;;;3.40;99.90;;;;;;6137783;23;20752;-73
2023/01/24 10:00:17;;;;;;;20.90;18.83;;;3.50;99.90;;;;;;6126292;23;20409;-73
2023/01/24 10:02:45;;;;;;;19.87;18.07;;;3.50;99.90;;;;;;6138139;23;20449;-73
2023/01/24 10:05:16;;;;;;;20.03;18.03;;;3.50;99.90;;;;;;6137589;23;20943;-72
2023/01/24 10:08:06;;;;;;;18.57;16.77;;;3.50;99.90;;;;;;6137276;23;20421;-72
2023/01/24 10:10:50;;;;;;;19.70;17.80;;;3.50;99.90;;;;;;6137604;23;20388;-73
2023/01/24 10:13:53;;;;;;;20.00;18.20;;;3.50;99.90;;;;;;6137562;23;20832;-73
2023/01/24 10:16:44;;;;;;;19.30;17.50;;;3.50;99.90;;;;;;6137252;23;20845;-73
2023/01/24 10:19:23;;;;;;;19.97;18.00;;;3.50;99.90;;;;;;6137535;23;20385;-73
2023/01/24 10:22:09;;;;;;;20.80;18.90;;;3.50;99.90;;;;;;6137858;23;20709;-73
2023/01/24 10:24:40;;;;;;;19.50;17.50;;;3.50;99.90;;;;;;6137695;23;20487;-73
2023/01/24 10:27:17;;;;;;;19.93;17.83;;;3.50;99.90;;;;;;6125667;23;20455;-72
2023/01/24 10:29:54;;;;;;;19.57;17.70;;;3.50;99.90;;;;;;6136568;23;20488;-72
2023/01/24 10:32:32;;;;;;;18.97;17.07;;;3.50;99.90;;;;;;6125729;23;20460;-71
2023/01/24 10:35:12;;;;;;;17.77;16.03;;;3.50;99.90;;;;;;6137142;23;20404;-73
2023/01/24 10:37:44;;;;;;;19.03;17.00;;;3.50;99.90;;;;;;6137144;23;20468;-72
2023/01/24 10:40:13;;;;;;;18.60;16.70;;;3.50;99.90;;;;;;6125818;23;20505;-73
2023/01/24 10:42:42;;;;;;;18.43;16.70;;;3.50;99.90;;;;;;6125793;23;20417;-72
2023/01/24 10:45:30;;;;;;;18.67;16.80;;;3.50;99.90;;;;;;6127510;23;20468;-73
2023/01/24 10:48:02;;;;;;;19.10;17.10;;;3.60;99.90;;;;;;6137754;23;20413;-72
2023/01/24 10:50:35;;;;;;;18.03;16.23;;;3.60;99.90;;;;;;6138178;23;20389;-73
2023/01/24 10:53:14;;;;;;;18.07;16.37;;;3.60;99.90;;;;;;6137958;23;20473;-73
2023/01/24 10:56:00;;;;;;;18.70;16.90;;;3.60;99.90;;;;;;6137408;23;20766;-73
2023/01/24 10:58:37;;;;;;;18.93;17.13;;;3.60;99.90;;;;;;6126285;23;20487;-73
2023/01/24 11:01:17;;;;;;;18.17;16.40;;;3.60;99.90;;;;;;6137722;23;20385;-72
2023/01/24 11:03:47;;;;;;;19.43;17.53;;;3.60;99.90;;;;;;6137443;23;20783;-72
2023/01/24 11:06:25;;;;;;;18.10;16.30;;;3.60;99.90;;;;;;6137008;23;20912;-72
2023/01/24 11:09:02;;;;;;;18.00;16.20;;;3.60;99.90;;;;;;6125446;23;20420;-72
2023/01/24 11:11:33;;;;;;;16.63;15.13;;;3.60;99.90;;;;;;6125466;23;20412;-73
2023/01/24 11:14:02;;;;;;;17.37;15.67;;;3.60;99.90;;;;;;6125516;23;20405;-73
2023/01/24 11:16:40;;;;;;;17.73;15.90;;;3.60;99.90;;;;;;6125311;23;20459;-72
2023/01/24 11:19:23;;;;;;;18.67;16.87;;;3.60;99.90;;;;;;6137084;23;20492;-72
2023/01/24 11:21:53;;;;;;;18.00;16.20;;;3.60;99.90;;;;;;6125455;23;20412;-72
2023/01/24 11:24:22;;;;;;;18.03;16.23;;;3.60;99.90;;;;;;6137243;23;20422;-73
2023/01/24 11:27:04;;;;;;;18.17;16.27;;;3.60;99.90;;;;;;6125497;23;21036;-72
2023/01/24 11:29:33;;;;;;;17.23;15.53;;;3.60;99.90;;;;;;6125570;23;20417;-73
2023/01/24 11:32:20;;;;;;;17.50;15.80;;;3.60;99.90;;;;;;6127128;23;20417;-72
2023/01/24 11:34:58;;;;;;;17.00;15.30;;;3.60;99.90;;;;;;6136617;23;20505;-73
2023/01/24 11:37:57;;;;;;;18.00;16.10;;;3.60;99.90;;;;;;6125118;23;20460;-73
2023/01/24 11:40:36;;;;;;;15.83;14.23;;;3.60;99.90;;;;;;6136914;23;20886;-73
2023/01/24 11:43:30;;;;;;;16.97;14.93;;;3.60;99.90;;;;;;6137106;23;20826;-73
2023/01/24 11:46:30;;;;;;;16.93;15.20;;;3.60;99.90;;;;;;6128910;23;20920;-73
2023/01/24 11:49:17;;;;;;;17.23;15.60;;;3.60;99.90;;;;;;6112614;23;20426;-73
2023/01/24 11:51:53;;;;;;;18.03;16.23;;;3.60;99.90;;;;;;6136825;23;20417;-74
2023/01/24 11:54:39;;;;;;;17.37;15.63;;;3.60;99.90;;;;;;6136590;23;20392;-73
2023/01/24 11:57:18;;;;;;;17.63;15.90;;;3.60;99.90;;;;;;6124962;23;20441;-73
2023/01/24 12:00:07;;;;;;;18.90;17.00;;;3.60;99.90;;;;;;6137016;23;20397;-73
2023/01/24 12:02:53;;;;;;;18.77;16.93;;;3.60;99.90;;;;;;6125533;23;20444;-73
2023/01/24 12:05:51;;;;;;;16.40;14.73;;;3.60;99.90;;;;;;6124943;23;20459;-73
2023/01/24 12:08:33;;;;;;;16.93;15.20;;;3.60;99.90;;;;;;6126782;23;20432;-73
2023/01/24 12:11:11;;;;;;;18.20;16.40;;;3.60;99.90;;;;;;6136681;23;20461;-73
2023/01/24 12:14:20;;;;;;;18.47;16.77;;;3.60;99.90;;;;;;6124894;23;20409;-73
2023/01/24 12:17:03;;;;;;;18.23;16.33;;;3.60;99.90;;;;;;6124847;23;20443;-72
2023/01/24 12:19:54;;;;;;;18.10;16.30;;;3.60;99.90;;;;;;6126791;23;20406;-73
2023/01/24 12:22:27;;;;;;;17.43;15.80;;;3.60;99.90;;;;;;6126489;23;20886;-73
2023/01/24 12:25:01;;;;;;;16.77;15.17;;;3.60;99.90;;;;;;6124789;23;20483;-73
2023/01/24 12:27:33;;;;;;;16.87;15.17;;;3.60;99.90;;;;;;6136421;23;20417;-73
2023/01/24 12:30:06;;;;;;;17.97;16.17;;;3.60;99.90;;;;;;6124869;23;20410;-73
2023/01/24 12:32:43;;;;;;;15.07;13.60;;;3.60;99.90;;;;;;6124920;23;20413;-73
2023/01/24 12:35:20;;;;;;;16.77;15.07;;;3.60;99.90;;;;;;6124910;23;20397;-73
2023/01/24 12:37:55;;;;;;;16.43;14.90;;;3.60;99.90;;;;;;6136513;23;20424;-73
2023/01/24 12:40:45;;;;;;;17.43;15.73;;;3.60;99.90;;;;;;6125076;23;20406;-73
2023/01/24 12:43:20;;;;;;;15.97;14.43;;;3.60;99.90;;;;;;6124768;23;20420;-73
2023/01/24 12:45:57;;;;;;;18.17;16.27;;;3.60;99.90;;;;;;6136164;23;20440;-73
2023/01/24 12:48:37;;;;;;;17.27;15.30;;;3.60;99.90;;;;;;6136336;23;20417;-73
2023/01/24 12:51:16;;;;;;;15.43;13.93;;;3.50;99.90;;;;;;6136846;23;20381;-73
2023/01/24 12:54:03;;;;;;;16.17;14.57;;;3.50;99.90;;;;;;6126805;23;20405;-72
2023/01/24 12:56:42;;;;;;;17.03;15.30;;;3.50;99.90;;;;;;6138167;23;20420;-73
2023/01/24 12:59:12;;;;;;;16.70;14.93;;;3.50;99.90;;;;;;6138412;23;20386;-73
2023/01/24 13:02:07;;;;;;;15.97;14.37;;;3.50;99.90;;;;;;6126704;23;20417;-74
2023/01/24 13:04:48;;;;;;;17.07;15.07;;;3.50;99.90;;;;;;6126487;23;20416;-73
2023/01/24 13:07:31;;;;;;;16.57;14.93;;;3.50;99.90;;;;;;6137875;23;20896;-72
2023/01/24 13:10:11;;;;;;;18.27;16.47;;;3.50;99.90;;;;;;6138257;23;20374;-73
2023/01/24 13:12:43;;;;;;;17.17;15.47;;;3.50;99.90;;;;;;6126583;23;20436;-73
2023/01/24 13:15:18;;;;;;;15.13;13.63;;;3.50;99.90;;;;;;6138567;23;20468;-75
2023/01/24 13:18:03;;;;;;;19.50;17.43;;;3.50;99.90;;;;;;6139081;23;20748;-74
2023/01/24 13:20:49;;;;;;;16.77;15.07;;;3.50;99.90;;;;;;6127110;23;20452;-75
2023/01/24 13:23:29;;;;;;;16.13;14.53;;;3.50;99.90;;;;;;6126291;23;20903;-74
2023/01/24 13:26:27;;;;;;;16.40;14.80;;;3.50;99.90;;;;;;6137812;23;20440;-75
2023/01/24 13:29:15;;;;;;;15.63;14.13;;;3.50;99.90;;;;;;6137605;23;20417;-73
2023/01/24 13:31:56;;;;;;;16.03;14.40;;;3.50;99.90;;;;;;6126425;23;20408;-72
2023/01/24 13:34:32;;;;;;;16.03;14.53;;;3.40;99.90;;;;;;6126523;23;20413;-72
2023/01/24 13:37:02;;;;;;;15.50;13.90;;;3.40;99.90;;;;;;6126179;23;20437;-72
2023/01/24 13:39:35;;;;;;;16.63;14.93;;;3.40;99.90;;;;;;6126387;23;20943;-72
2023/01/24 13:42:18;;;;;;;16.53;14.83;;;3.40;99.90;;;;;;6137969;23;20405;-73
2023/01/24 13:44:46;;;;;;;33.17;29.73;;;3.40;99.90;;;;;;6137844;23;20382;-72
2023/01/24 13:47:33;;;;;;;16.53;14.93;;;3.40;99.90;;;;;;6137170;23;20476;-73